createdAt,value
2022-11-19T00:00:09.941Z,17.40
2022-11-19T00:02:58.435Z,22.87
2022-11-19T00:05:28.140Z,21.00
2022-11-19T00:07:56.759Z,20.00
2022-11-19T00:10:25.064Z,20.53
2022-11-19T00:12:55.187Z,22.67
2022-11-19T00:15:24.320Z,15.13
2022-11-19T00:17:53.247Z,13.97
2022-11-19T00:20:21.555Z,16.67
2022-11-19T00:22:54.263Z,14.57
2022-11-19T00:25:23.224Z,19.03
2022-11-19T00:27:52.544Z,19.67
2022-11-19T00:30:46.291Z,13.37
2022-11-19T00:33:09.678Z,16.37
2022-11-19T00:35:37.976Z,20.23
2022-11-19T00:38:07.872Z,17.33
2022-11-19T00:40:36.161Z,18.70
2022-11-19T00:43:22.283Z,15.23
2022-11-19T00:45:50.951Z,13.93
2022-11-19T00:48:19.532Z,9.47
2022-11-19T00:50:47.905Z,18.27
2022-11-19T00:53:18.022Z,16.00
2022-11-19T00:55:46.324Z,14.87
2022-11-19T00:58:14.888Z,14.70
2022-11-19T01:00:43.340Z,14.47
2022-11-19T01:03:11.981Z,18.13
2022-11-19T01:05:40.317Z,11.37
2022-11-19T01:08:08.893Z,18.00
2022-11-19T01:10:38.617Z,16.03
2022-11-19T01:13:24.715Z,11.20
2022-11-19T01:15:53.098Z,13.57
2022-11-19T01:18:21.842Z,14.43
2022-11-19T01:20:50.153Z,15.87
2022-11-19T01:23:18.815Z,9.63
2022-11-19T01:25:48.843Z,16.30
2022-11-19T01:28:17.607Z,22.03
2022-11-19T01:30:45.949Z,13.93
2022-11-19T01:33:14.718Z,14.33
2022-11-19T01:35:42.985Z,11.50
2022-11-19T01:38:11.459Z,14.73
2022-11-19T01:40:44.680Z,19.63
2022-11-19T01:43:15.357Z,10.30
2022-11-19T01:45:48.199Z,11.07
2022-11-19T01:48:21.957Z,14.70
2022-11-19T01:50:52.097Z,15.70
2022-11-19T01:53:22.183Z,17.50
2022-11-19T01:55:51.641Z,19.67
2022-11-19T01:58:25.093Z,21.30
2022-11-19T02:00:53.526Z,20.10
2022-11-19T02:03:22.262Z,13.07
2022-11-19T02:05:51.384Z,13.73
2022-11-19T02:08:39.396Z,21.30
2022-11-19T02:11:44.074Z,29.73
2022-11-19T02:14:33.517Z,20.87
2022-11-19T02:17:15.895Z,22.60
2022-11-19T02:20:08.845Z,23.80
2022-11-19T02:22:58.981Z,28.33
2022-11-19T02:25:48.937Z,32.07
2022-11-19T02:28:32.814Z,33.33
2022-11-19T02:31:09.735Z,27.47
2022-11-19T02:33:44.314Z,31.17
2022-11-19T02:36:21.400Z,26.27
2022-11-19T02:38:56.016Z,33.67
2022-11-19T02:41:37.762Z,27.53
2022-11-19T02:44:34.921Z,32.70
2022-11-19T02:47:07.754Z,37.13
2022-11-19T02:49:40.413Z,37.07
2022-11-19T02:52:10.146Z,30.57
2022-11-19T02:54:38.589Z,35.57
2022-11-19T02:57:07.269Z,26.77
2022-11-19T02:59:58.496Z,46.30
2022-11-19T03:02:48.930Z,33.60
2022-11-19T03:05:21.962Z,23.97
2022-11-19T03:07:50.718Z,23.30
2022-11-19T03:10:22.194Z,19.83
2022-11-19T03:12:54.672Z,35.03
2022-11-19T03:15:47.470Z,29.70
2022-11-19T03:18:22.343Z,20.87
2022-11-19T03:20:55.914Z,20.80
2022-11-19T03:23:30.798Z,20.40
2022-11-19T03:26:06.363Z,24.97
2022-11-19T03:28:37.526Z,25.23
2022-11-19T03:31:07.386Z,39.60
2022-11-19T03:33:41.098Z,21.70
2022-11-19T03:36:15.347Z,21.87
2022-11-19T03:38:48.870Z,19.70
2022-11-19T03:41:19.828Z,22.60
2022-11-19T03:43:53.420Z,34.17
2022-11-19T03:46:24.250Z,25.83
2022-11-19T03:48:55.597Z,30.37
2022-11-19T03:51:29.685Z,22.27
2022-11-19T03:53:58.701Z,24.27
2022-11-19T03:56:28.836Z,26.17
2022-11-19T03:59:00.495Z,25.10
2022-11-19T04:01:28.796Z,22.27
2022-11-19T04:04:16.397Z,28.20
2022-11-19T04:06:44.768Z,27.73
2022-11-19T04:09:13.406Z,30.80
2022-11-19T04:11:42.007Z,28.50
2022-11-19T04:14:10.687Z,30.30
2022-11-19T04:16:39.037Z,24.27
2022-11-19T04:19:08.975Z,23.80
2022-11-19T04:21:37.301Z,23.20
2022-11-19T04:24:06.819Z,26.47
2022-11-19T04:26:35.224Z,28.53
2022-11-19T04:29:03.948Z,22.13
2022-11-19T04:31:32.375Z,23.73
2022-11-19T04:34:01.158Z,23.90
2022-11-19T04:36:30.984Z,27.00
2022-11-19T04:39:00.326Z,17.80
2022-11-19T04:41:28.696Z,21.03
2022-11-19T04:43:57.357Z,25.10
2022-11-19T04:46:25.561Z,20.60
2022-11-19T04:48:54.297Z,19.93
2022-11-19T04:51:22.628Z,22.30
2022-11-19T04:53:52.554Z,20.43
2022-11-19T04:56:20.819Z,23.70
2022-11-19T04:58:49.340Z,25.57
2022-11-19T05:01:20.500Z,28.17
2022-11-19T05:03:50.758Z,19.30
2022-11-19T05:06:19.408Z,20.53
2022-11-19T05:08:48.051Z,21.30
2022-11-19T05:11:17.763Z,23.53
2022-11-19T05:13:46.293Z,18.23
2022-11-19T05:16:14.652Z,23.20
2022-11-19T05:18:43.161Z,20.70
2022-11-19T05:21:11.483Z,17.63
2022-11-19T05:23:39.999Z,23.93
2022-11-19T05:26:08.279Z,20.97
2022-11-19T05:28:39.676Z,16.40
2022-11-19T05:31:09.083Z,19.17
2022-11-19T05:33:37.612Z,28.67
2022-11-19T05:36:06.768Z,15.43
2022-11-19T05:38:35.348Z,16.50
2022-11-19T05:41:03.585Z,17.93
2022-11-19T05:43:32.117Z,18.63
2022-11-19T05:46:02.649Z,25.23
2022-11-19T05:48:31.587Z,17.40
2022-11-19T05:50:59.842Z,17.87
2022-11-19T05:53:28.686Z,17.57
2022-11-19T05:55:56.982Z,15.00
2022-11-19T05:58:25.525Z,19.03
2022-11-19T06:00:56.109Z,19.57
2022-11-19T06:03:26.394Z,19.90
2022-11-19T06:05:54.738Z,15.83
2022-11-19T06:08:24.186Z,15.30
2022-11-19T06:10:52.560Z,17.43
2022-11-19T06:13:21.428Z,16.33
2022-11-19T06:15:50.128Z,16.33
2022-11-19T06:18:18.780Z,16.17
2022-11-19T06:20:48.515Z,19.63
2022-11-19T06:23:17.277Z,21.13
2022-11-19T06:25:45.770Z,19.53
2022-11-19T06:28:14.342Z,13.53
2022-11-19T06:30:42.660Z,21.47
2022-11-19T06:33:11.339Z,20.33
2022-11-19T06:35:39.732Z,18.20
2022-11-19T06:38:09.632Z,25.90
2022-11-19T06:40:38.018Z,16.27
2022-11-19T06:43:06.765Z,12.87
2022-11-19T06:45:35.273Z,14.73
2022-11-19T06:48:04.713Z,20.60
2022-11-19T06:50:33.263Z,16.27
2022-11-19T06:53:02.038Z,15.87
2022-11-19T06:55:31.865Z,18.23
2022-11-19T06:58:03.530Z,16.97
2022-11-19T07:00:32.132Z,17.90
2022-11-19T07:03:00.732Z,18.00
2022-11-19T07:05:29.449Z,19.50
2022-11-19T07:08:02.822Z,19.50
2022-11-19T07:10:33.910Z,18.17
2022-11-19T07:13:02.945Z,18.83
2022-11-19T07:15:31.337Z,21.17
2022-11-19T07:17:59.979Z,16.80
2022-11-19T07:20:29.079Z,15.90
2022-11-19T07:22:59.304Z,17.70
2022-11-19T07:25:28.163Z,19.43
2022-11-19T07:27:58.252Z,16.20
2022-11-19T07:30:26.648Z,15.13
2022-11-19T07:32:55.585Z,18.83
2022-11-19T07:35:24.140Z,17.83
2022-11-19T07:37:52.737Z,27.97
2022-11-19T07:40:21.130Z,20.57
2022-11-19T07:42:51.795Z,24.40
2022-11-19T07:45:23.250Z,18.73
2022-11-19T07:47:51.931Z,28.60
2022-11-19T07:50:20.422Z,20.33
2022-11-19T07:52:48.998Z,15.63
2022-11-19T07:55:17.534Z,19.70
2022-11-19T07:57:46.466Z,17.73
2022-11-19T08:00:15.863Z,21.73
2022-11-19T08:02:46.217Z,24.70
2022-11-19T08:05:14.574Z,19.37
2022-11-19T08:07:43.868Z,18.00
2022-11-19T08:10:13.015Z,20.97
2022-11-19T08:13:02.262Z,17.27
2022-11-19T08:15:31.856Z,22.27
2022-11-19T08:18:14.056Z,17.30
2022-11-19T08:20:43.560Z,19.33
2022-11-19T08:23:13.320Z,14.40
2022-11-19T08:25:47.487Z,17.33
2022-11-19T08:28:16.220Z,12.80
2022-11-19T08:30:45.596Z,15.00
2022-11-19T08:33:15.817Z,19.00
2022-11-19T08:35:44.169Z,21.10
2022-11-19T08:38:13.053Z,14.60
2022-11-19T08:40:41.477Z,19.83
2022-11-19T08:43:09.054Z,19.87
2022-11-19T08:45:39.613Z,18.63
2022-11-19T08:48:10.602Z,18.87
2022-11-19T08:50:43.658Z,13.57
2022-11-19T08:53:12.766Z,19.00
2022-11-19T08:55:41.254Z,23.10
2022-11-19T08:58:12.038Z,26.30
2022-11-19T09:00:41.309Z,20.60
2022-11-19T09:03:10.045Z,15.97
2022-11-19T09:05:40.683Z,23.30
2022-11-19T09:08:09.804Z,20.33
2022-11-19T09:10:39.439Z,16.27
2022-11-19T09:13:08.616Z,17.50
2022-11-19T09:15:37.774Z,18.97
2022-11-19T09:18:06.647Z,17.30
2022-11-19T09:20:36.072Z,16.33
2022-11-19T09:23:06.476Z,10.87
2022-11-19T09:25:34.993Z,15.57
2022-11-19T09:28:03.928Z,19.17
2022-11-19T09:30:32.388Z,22.00
2022-11-19T09:33:01.155Z,15.73
2022-11-19T09:35:29.853Z,18.17
2022-11-19T09:37:58.524Z,16.30
2022-11-19T09:40:28.674Z,17.17
2022-11-19T09:43:12.583Z,18.90
2022-11-19T09:45:55.539Z,14.30
2022-11-19T09:48:33.797Z,21.60
2022-11-19T09:51:04.883Z,18.73
2022-11-19T09:53:37.223Z,19.83
2022-11-19T09:56:07.880Z,17.83
2022-11-19T09:58:41.459Z,19.57
2022-11-19T10:01:14.370Z,16.30
2022-11-19T10:03:47.971Z,16.83
2022-11-19T10:06:26.896Z,15.13
2022-11-19T10:09:18.949Z,14.27
2022-11-19T10:11:57.720Z,10.23
2022-11-19T10:14:40.585Z,14.90
2022-11-19T10:17:20.547Z,14.63
2022-11-19T10:20:03.426Z,12.90
2022-11-19T10:22:39.829Z,11.93
2022-11-19T10:25:18.345Z,10.60
2022-11-19T10:27:55.106Z,16.03
2022-11-19T10:30:25.756Z,14.83
2022-11-19T10:32:59.833Z,15.20
2022-11-19T10:35:33.958Z,13.87
2022-11-19T10:38:05.409Z,16.23
2022-11-19T10:40:39.668Z,21.00
2022-11-19T10:43:23.332Z,13.30
2022-11-19T10:45:52.440Z,14.50
2022-11-19T10:48:23.219Z,15.00
2022-11-19T10:50:52.257Z,10.80
2022-11-19T10:53:26.164Z,12.83
2022-11-19T10:55:58.685Z,10.80
2022-11-19T10:58:34.557Z,14.10
2022-11-19T11:01:06.132Z,10.83
2022-11-19T11:03:39.235Z,14.77
2022-11-19T11:06:10.252Z,15.53
2022-11-19T11:08:49.641Z,13.77
2022-11-19T11:11:26.070Z,14.47
2022-11-19T11:14:19.866Z,14.63
2022-11-19T11:16:49.731Z,17.30
2022-11-19T11:19:20.918Z,11.27
2022-11-19T11:21:53.971Z,12.73
2022-11-19T11:24:31.417Z,11.97
2022-11-19T11:27:22.068Z,17.47
2022-11-19T11:30:06.262Z,13.77
2022-11-19T11:32:35.206Z,16.77
2022-11-19T11:35:08.228Z,14.87
2022-11-19T11:37:38.827Z,12.27
2022-11-19T11:40:08.754Z,14.43
2022-11-19T11:42:37.524Z,22.20
2022-11-19T11:45:21.350Z,15.77
2022-11-19T11:47:50.463Z,15.53
2022-11-19T11:50:24.258Z,16.47
2022-11-19T11:52:54.999Z,12.40
2022-11-19T11:55:33.426Z,19.90
2022-11-19T11:58:04.131Z,18.87
2022-11-19T12:00:36.433Z,12.80
2022-11-19T12:03:07.398Z,14.57
2022-11-19T12:05:48.375Z,15.70
2022-11-19T12:08:39.798Z,11.57
2022-11-19T12:11:16.338Z,14.17
2022-11-19T12:13:56.324Z,15.43
2022-11-19T12:16:43.048Z,14.73
2022-11-19T12:19:32.977Z,13.33
2022-11-19T12:22:08.709Z,18.67
2022-11-19T12:24:51.023Z,18.67
2022-11-19T12:27:30.621Z,16.10
2022-11-19T12:30:06.190Z,14.70
2022-11-19T12:33:04.475Z,16.97
2022-11-19T12:35:45.143Z,15.10
2022-11-19T12:38:25.070Z,14.90
2022-11-19T12:41:02.257Z,13.10
2022-11-19T12:43:49.927Z,12.30
2022-11-19T12:46:27.549Z,18.70
2022-11-19T12:49:08.781Z,13.20
2022-11-19T12:51:48.605Z,10.43
2022-11-19T12:54:33.396Z,11.33
2022-11-19T12:57:18.915Z,14.83
2022-11-19T13:00:08.539Z,14.40
2022-11-19T13:02:46.601Z,11.10
2022-11-19T13:05:20.933Z,15.63
2022-11-19T13:07:56.026Z,10.77
2022-11-19T13:10:26.954Z,11.50
2022-11-19T13:12:58.209Z,11.07
2022-11-19T13:15:32.164Z,9.00
2022-11-19T13:18:04.690Z,11.10
2022-11-19T13:20:41.948Z,8.40
2022-11-19T13:23:16.852Z,9.50
2022-11-19T13:25:51.841Z,11.03
2022-11-19T13:28:26.180Z,16.43
2022-11-19T13:30:56.357Z,6.87
2022-11-19T13:33:32.182Z,12.83
2022-11-19T13:36:08.691Z,9.50
2022-11-19T13:38:45.744Z,7.13
2022-11-19T13:41:20.265Z,11.93
2022-11-19T13:44:07.617Z,9.73
2022-11-19T13:46:41.288Z,14.97
2022-11-19T13:49:18.657Z,9.37
2022-11-19T13:51:51.555Z,13.93
2022-11-19T13:54:25.721Z,13.97
2022-11-19T13:56:57.982Z,10.80
2022-11-19T13:59:34.858Z,12.57
2022-11-19T14:02:34.262Z,15.60
2022-11-19T14:05:40.382Z,8.53
2022-11-19T14:08:32.533Z,12.70
2022-11-19T14:11:13.409Z,8.97
2022-11-19T14:14:34.301Z,8.47
2022-11-19T14:17:30.922Z,10.60
2022-11-19T14:20:16.940Z,12.10
2022-11-19T14:23:13.377Z,13.47
2022-11-19T14:26:02.999Z,13.03
2022-11-19T14:28:48.401Z,13.40
2022-11-19T14:31:19.708Z,11.90
2022-11-19T14:34:00.314Z,12.27
2022-11-19T14:36:47.675Z,14.17
2022-11-19T14:39:23.521Z,12.83
2022-11-19T14:42:14.945Z,16.30
2022-11-19T14:44:44.599Z,15.00
2022-11-19T14:47:34.492Z,14.03
2022-11-19T14:50:08.253Z,14.00
2022-11-19T14:52:39.862Z,11.37
2022-11-19T14:55:23.507Z,12.07
2022-11-19T14:58:01.094Z,12.17
2022-11-19T15:00:33.118Z,14.80
2022-11-19T15:03:03.526Z,15.07
2022-11-19T15:05:34.671Z,14.23
2022-11-19T15:08:44.140Z,14.73
2022-11-19T15:11:13.981Z,12.60
2022-11-19T15:13:45.212Z,21.83
2022-11-19T15:16:16.730Z,14.80
2022-11-19T15:19:19.154Z,16.83
2022-11-19T15:22:09.090Z,13.17
2022-11-19T15:24:58.863Z,18.30
2022-11-19T15:27:40.451Z,17.10
2022-11-19T15:30:16.257Z,19.20
2022-11-19T15:33:22.595Z,17.20
2022-11-19T15:36:39.717Z,19.90
2022-11-19T15:39:16.663Z,15.50
2022-11-19T15:42:00.604Z,20.10
2022-11-19T15:44:40.775Z,19.63
2022-11-19T15:47:15.621Z,13.77
2022-11-19T15:49:45.875Z,16.30
2022-11-19T15:52:21.456Z,16.07
2022-11-19T15:54:50.321Z,14.30
2022-11-19T15:57:27.096Z,18.67
2022-11-19T15:59:59.003Z,22.93
2022-11-19T16:02:34.748Z,21.30
2022-11-19T16:05:03.574Z,16.67
2022-11-19T16:07:32.940Z,16.90
2022-11-19T16:10:02.362Z,15.30
2022-11-19T16:12:48.220Z,26.67
2022-11-19T16:15:37.203Z,20.13
2022-11-19T16:18:13.750Z,16.47
2022-11-19T16:20:45.307Z,16.87
2022-11-19T16:23:17.783Z,17.27
2022-11-19T16:25:47.101Z,17.57
2022-11-19T16:28:18.016Z,16.77
2022-11-19T16:30:50.260Z,19.77
2022-11-19T16:33:22.265Z,17.37
2022-11-19T16:35:53.294Z,21.77
2022-11-19T16:38:27.324Z,21.43
2022-11-19T16:41:14.464Z,21.90
2022-11-19T16:44:05.759Z,17.40
2022-11-19T16:46:36.429Z,21.53
2022-11-19T16:49:09.975Z,26.50
2022-11-19T16:51:59.061Z,18.67
2022-11-19T16:54:49.123Z,17.97
2022-11-19T16:57:20.880Z,21.53
2022-11-19T16:59:53.799Z,25.23
2022-11-19T17:02:24.435Z,19.27
2022-11-19T17:04:54.799Z,19.77
2022-11-19T17:07:25.729Z,21.20
2022-11-19T17:10:10.473Z,18.37
2022-11-19T17:12:50.287Z,20.27
2022-11-19T17:15:40.717Z,25.10
2022-11-19T17:18:14.889Z,20.90
2022-11-19T17:20:52.812Z,20.80
2022-11-19T17:23:22.849Z,23.07
2022-11-19T17:25:53.949Z,21.83
2022-11-19T17:28:28.515Z,21.80
2022-11-19T17:30:57.889Z,20.97
2022-11-19T17:33:26.247Z,20.27
2022-11-19T17:35:56.104Z,16.73
2022-11-19T17:38:27.648Z,24.90
2022-11-19T17:40:58.291Z,27.33
2022-11-19T17:43:50.230Z,21.73
2022-11-19T17:46:19.169Z,21.27
2022-11-19T17:48:49.042Z,26.13
2022-11-19T17:51:20.854Z,20.10
2022-11-19T17:53:51.283Z,24.73
2022-11-19T17:56:22.935Z,23.73
2022-11-19T17:58:51.318Z,26.10
2022-11-19T18:01:20.685Z,28.00
2022-11-19T18:03:49.657Z,28.27
2022-11-19T18:06:20.148Z,21.13
2022-11-19T18:08:48.518Z,25.27
2022-11-19T18:11:19.592Z,25.20
2022-11-19T18:13:49.312Z,20.43
2022-11-19T18:16:19.714Z,28.20
2022-11-19T18:18:48.387Z,27.00
2022-11-19T18:21:21.124Z,24.20
2022-11-19T18:23:51.340Z,27.43
2022-11-19T18:26:22.566Z,28.23
2022-11-19T18:28:50.957Z,19.63
2022-11-19T18:31:21.843Z,23.90
2022-11-19T18:33:50.706Z,22.20
2022-11-19T18:36:21.167Z,21.07
2022-11-19T18:38:49.458Z,26.17
2022-11-19T18:41:20.003Z,18.50
2022-11-19T18:44:06.334Z,23.50
2022-11-19T18:46:34.990Z,30.97
2022-11-19T18:49:03.240Z,25.87
2022-11-19T18:51:34.295Z,22.00
2022-11-19T18:54:02.861Z,23.57
2022-11-19T18:56:31.491Z,24.43
2022-11-19T18:59:04.520Z,25.40
2022-11-19T19:01:34.839Z,21.57
2022-11-19T19:04:03.324Z,22.80
2022-11-19T19:06:33.878Z,31.17
2022-11-19T19:09:02.449Z,27.57
2022-11-19T19:11:48.216Z,32.33
2022-11-19T19:14:16.539Z,31.37
2022-11-19T19:16:45.079Z,25.90
2022-11-19T19:19:16.141Z,24.97
2022-11-19T19:21:46.233Z,25.77
2022-11-19T19:24:14.877Z,23.63
2022-11-19T19:26:43.579Z,26.80
2022-11-19T19:29:12.812Z,26.70
2022-11-19T19:31:41.368Z,21.80
2022-11-19T19:34:09.603Z,18.77
2022-11-19T19:36:38.282Z,22.90
2022-11-19T19:39:08.200Z,21.27
2022-11-19T19:41:36.801Z,23.77
2022-11-19T19:44:07.020Z,27.10
2022-11-19T19:46:36.142Z,22.50
2022-11-19T19:49:04.804Z,21.37
2022-11-19T19:51:33.680Z,28.50
2022-11-19T19:54:02.169Z,22.67
2022-11-19T19:56:33.538Z,28.27
2022-11-19T19:59:02.811Z,31.43
2022-11-19T20:01:33.200Z,24.03
2022-11-19T20:04:02.967Z,15.13
2022-11-19T20:06:33.958Z,28.10
2022-11-19T20:09:08.134Z,21.40
2022-11-19T20:11:39.621Z,26.37
2022-11-19T20:14:08.511Z,21.37
2022-11-19T20:16:40.575Z,23.97
2022-11-19T20:19:11.610Z,23.43
2022-11-19T20:21:40.293Z,23.97
2022-11-19T20:24:12.656Z,22.53
2022-11-19T20:26:43.682Z,17.73
2022-11-19T20:29:14.310Z,21.73
2022-11-19T20:31:47.677Z,24.27
2022-11-19T20:34:17.235Z,23.47
2022-11-19T20:36:46.181Z,25.33
2022-11-19T20:39:14.620Z,30.43
2022-11-19T20:41:58.498Z,36.17
2022-11-19T20:44:26.968Z,31.90
2022-11-19T20:46:57.337Z,24.13
2022-11-19T20:49:27.328Z,39.43
2022-11-19T20:51:56.777Z,34.70
2022-11-19T20:54:26.473Z,37.77
2022-11-19T20:56:57.732Z,43.40
2022-11-19T20:59:27.524Z,36.43
2022-11-19T21:01:57.736Z,37.83
2022-11-19T21:04:28.534Z,27.27
2022-11-19T21:06:57.362Z,31.67
2022-11-19T21:09:26.206Z,33.70
2022-11-19T21:11:56.207Z,31.10
2022-11-19T21:14:24.854Z,26.03
2022-11-19T21:16:53.319Z,27.80
2022-11-19T21:19:22.126Z,30.20
2022-11-19T21:21:50.965Z,35.80
2022-11-19T21:24:19.823Z,30.57
2022-11-19T21:26:48.589Z,33.17
2022-11-19T21:29:18.737Z,26.50
2022-11-19T21:31:49.084Z,25.00
2022-11-19T21:34:20.596Z,32.30
2022-11-19T21:36:49.763Z,25.77
2022-11-19T21:39:20.110Z,26.73
2022-11-19T21:41:48.793Z,22.70
2022-11-19T21:44:21.862Z,26.07
2022-11-19T21:46:50.594Z,20.83
2022-11-19T21:49:19.465Z,30.37
2022-11-19T21:51:49.041Z,27.20
2022-11-19T21:54:18.925Z,27.83
2022-11-19T21:56:47.258Z,24.57
2022-11-19T21:59:15.844Z,27.30
2022-11-19T22:01:53.332Z,24.67
2022-11-19T22:04:23.301Z,26.50
2022-11-19T22:06:51.803Z,26.17
2022-11-19T22:09:20.597Z,27.33
2022-11-19T22:11:49.052Z,25.80
2022-11-19T22:14:17.593Z,33.40
2022-11-19T22:16:47.624Z,33.97
2022-11-19T22:19:16.381Z,32.83
2022-11-19T22:21:46.653Z,24.07
2022-11-19T22:27:01.561Z,32.63
2022-11-19T22:29:30.399Z,25.67
2022-11-19T22:32:00.144Z,29.77
2022-11-19T22:34:29.057Z,34.07
2022-11-19T22:36:57.549Z,25.10
2022-11-19T22:39:26.523Z,28.50
2022-11-19T22:41:55.178Z,27.50
2022-11-19T22:44:23.976Z,22.07
2022-11-19T22:46:52.531Z,25.53
2022-11-19T22:49:22.779Z,32.30
2022-11-19T22:51:51.453Z,24.80
2022-11-19T22:54:19.999Z,26.93
2022-11-19T22:56:48.429Z,22.60
2022-11-19T22:59:17.978Z,23.77
2022-11-19T23:01:46.356Z,30.90
2022-11-19T23:04:16.239Z,20.47
2022-11-19T23:06:45.984Z,29.33
2022-11-19T23:09:14.608Z,27.73
2022-11-19T23:12:00.849Z,27.40
2022-11-19T23:14:30.171Z,32.30
2022-11-19T23:16:58.428Z,28.77
2022-11-19T23:19:27.073Z,27.03
2022-11-19T23:21:56.719Z,33.00
2022-11-19T23:24:25.311Z,22.03
2022-11-19T23:26:53.599Z,24.10
2022-11-19T23:29:22.688Z,27.63
2022-11-19T23:31:51.254Z,28.43
2022-11-19T23:34:19.821Z,30.93
2022-11-19T23:36:48.098Z,27.63
2022-11-19T23:39:19.392Z,30.53
2022-11-19T23:41:48.124Z,30.27
2022-11-19T23:44:16.663Z,38.60
2022-11-19T23:46:45.206Z,25.43
2022-11-19T23:49:13.924Z,24.17
2022-11-19T23:51:42.211Z,31.47
2022-11-19T23:54:13.191Z,26.57
2022-11-19T23:56:42.977Z,29.90
2022-11-19T23:59:11.593Z,28.33
